Terminal Aerodrome Forecast
Issued by NWS

Home | Current Version | Previous Version | Text Only | Print | Product List | Glossary On
Versions: 1 2 3 4 5 6 7 8 9 10 11 12 13 14 15 16 17 18 19 20 21 22 23 24 25 26 27 28 29 30 31 32 33 34 35 36 37 38 39 40 41 42 43 44 45 46
000
FTUS41 KBOX 232058 AAA
TAFMHT
TAF AMD
KMHT 232058Z 2321/2418 23012KT P6SM BKN040
     FM232300 24010KT P6SM VCTS BKN040CB
     FM240500 VRB03KT 5SM -SHRA BR OVC050
     FM241000 30004KT 5SM BR OVC050
     FM241300 36006KT P6SM BKN020=

USA.gov is the U.S. government's official web portal to all federal, state and local government web resources and services.